White Water, CA (92282)

5:48 PM PDT on September 03, 2015 (GMT -0700)
Covington Park | | Change Station
CLOSE
Current Station
Personal Weather Station
Location: Morongo Valley, CA
Elevation: 2556 ft
Nearby Weather Stations

Elev 2556 ft 34.05 °N, 116.58 °W | Updated 10 seconds ago

Clear
Clear
86.0 °F
Feels Like 83 °F
N
6.0
Wind Variable Wind from WSW
Gusts 14.5 mph

Today
High -- | Low -- °F
--% Chance of Precip.
Yesterday
High -- | Low -- °F
Precip. -- in
6:21 AM 7:09 PM
Waning Gibbous, 65% visible
Pressure 29.67 in
Visibility 10.0 miles
Clouds Clear
Heat Index 83 °F
Dew Point 40 °F
Humidity 20%
Rainfall 0.00 in
Snow Depth Not available.
UV 3 out of 12
Pollen 7.30 out of 12
Air Quality Not available.
Flu Activity Not available.
METAR KPSP 032353Z 32017G21KT 10SM CLR 37/06 A2968 RMK AO2 SLP045 T03720061 10389 20333 56021
Pressure 29.67 in
Visibility 10.0 miles
Clouds Clear
Heat Index 83 °F
Dew Point 40 °F
Humidity 20%
Rainfall 0.00 in
Snow Depth Not available.
UV 3 out of 12
Pollen 7.30 out of 12
Air Quality Not available.
Flu Activity Not available.
METAR KPSP 032353Z 32017G21KT 10SM CLR 37/06 A2968 RMK AO2 SLP045 T03720061 10389 20333 56021

10-Day Weather Forecast

×

Almanac

Astronomy

Sep. 03, 2015 Rise Set
Actual Time
Civil Twilight
Nautical Twilight
Astronomical Twilight
Moon
Length of Visible Light
Length of Day
Tomorrow will be .
, % of the Moon is Illuminated

Today's Extremes

State Highs State Lows

Community

WunderPhotos

Upload Photos

1,852,075 photos uploaded!

WunderBlogs® & News

Nearby

Air Quality

  Air Quality AQ Index Pollutant
Not available.

Snow Depth

Station Depth Elevation

Earthquake Activity

City Distance Mag. Time & Date
Minimum magnitude displayed is 2.5.

Coastal Water Temperatures

Place Temperature

Stations

Nearby Weather Stations

Station Location Temp. Windchill Dew Point Humidity Wind Precip. Elev Updated Type